Terminal Aerodrome Forecast
Issued by NWS Topeka, KS

Home | Current Version | Previous Version | Graphics & Text | Print | Product List | Glossary On
Versions: 1 2 3 4 5 6 7 8 9 10 11 12 13 14 15 16 17 18
000
FTUS43 KTOP 191100
TAFTOP
TAF
KTOP 191124Z 1912/2012 VRB05KT P6SM SCT070 SCT200
     FM191800 14005KT P6SM SCT130
     FM200300 19005KT P6SM SCT250=

USA.gov is the U.S. government's official web portal to all federal, state and local government web resources and services.